Terminal Aerodrome Forecast
Issued by NWS

Home | Current Version | Previous Version | Text Only | Print | Product List | Glossary On
Versions: 1 2 3 4 5 6 7 8 9 10 11 12 13 14 15 16 17 18 19 20 21 22 23 24 25 26 27 28 29 30 31 32 33 34 35 36 37 38
000
FTUS45 KBOI 032332
TAFMYL
TAF
KMYL 032332Z 0400/0424 VRB03KT P6SM SCT020 OVC035
     FM040900 16005KT 2SM -SHSN SCT008 OVC015
     FM041300 16009KT 3/4SM -SHSN OVC007=

USA.gov is the U.S. government's official web portal to all federal, state and local government web resources and services.